Time;durP1;ratioP1;P1;durP2;ratioP2;P2;SDS_P1;SDS_P2;PMS_P1;PMS_P2;Temp;Humidity;BMP_temperature;BMP_pressure;BME280_temperature;BME280_humidity;BME280_pressure;Samples;Min_cycle;Max_cycle;Signal;HPM_P1;HPM_P2
2023/10/06 00:01:30;;;;;;;5.60;3.97;;;;;;;10.37;100.00;97613.03;5046084;28;20199;-52
2023/10/06 00:03:59;;;;;;;5.80;4.10;;;;;;;10.38;100.00;97612.09;5043947;28;20214;-51
2023/10/06 00:06:27;;;;;;;4.93;3.73;;;;;;;10.36;100.00;97613.97;5044624;28;20280;-51
2023/10/06 00:08:57;;;;;;;4.43;3.93;;;;;;;10.36;100.00;97624.56;5043787;28;20231;-51
2023/10/06 00:11:28;;;;;;;5.67;4.00;;;;;;;10.44;100.00;97632.75;5043670;28;20723;-50
2023/10/06 00:14:00;;;;;;;5.47;3.87;;;;;;;10.40;100.00;97639.22;5043492;28;20212;-52
2023/10/06 00:16:27;;;;;;;4.53;4.03;;;;;;;10.42;100.00;97635.50;5044839;28;20215;-50
2023/10/06 00:18:57;;;;;;;7.17;4.27;;;;;;;10.38;100.00;97631.41;5045508;28;20865;-50
2023/10/06 00:21:23;;;;;;;4.90;4.00;;;;;;;10.35;100.00;97633.44;5045431;28;20306;-50
2023/10/06 00:23:52;;;;;;;6.27;3.90;;;;;;;10.34;100.00;97626.50;5045631;28;20207;-51
2023/10/06 00:26:19;;;;;;;4.50;3.90;;;;;;;10.29;100.00;97620.69;5045995;28;20234;-51
2023/10/06 00:28:46;;;;;;;7.40;4.33;;;;;;;10.31;100.00;97626.69;5048404;28;20227;-51
2023/10/06 00:31:13;;;;;;;5.57;4.50;;;;;;;10.28;100.00;97616.38;5047998;28;20211;-52
2023/10/06 00:33:42;;;;;;;6.47;4.40;;;;;;;10.28;100.00;97616.38;5048632;28;20275;-50
2023/10/06 00:36:12;;;;;;;6.03;4.40;;;;;;;10.23;100.00;97613.25;5048368;28;20203;-52
2023/10/06 00:38:39;;;;;;;4.57;3.90;;;;;;;10.28;100.00;97611.06;5049271;28;20206;-51
2023/10/06 00:41:07;;;;;;;4.77;4.30;;;;;;;10.35;100.00;97612.28;5047571;28;20246;-52
2023/10/06 00:43:39;;;;;;;8.07;4.43;;;;;;;10.33;100.00;97614.22;5048050;28;20338;-55
2023/10/06 00:46:07;;;;;;;4.90;3.90;;;;;;;10.36;100.00;97611.34;5046981;28;20203;-50
2023/10/06 00:48:35;;;;;;;7.33;4.73;;;;;;;10.38;100.00;97612.09;5047556;28;21070;-50
2023/10/06 00:51:04;;;;;;;5.03;3.93;;;;;;;10.38;100.00;97614.72;5044004;28;20208;-50
2023/10/06 00:53:32;;;;;;;6.10;4.20;;;;;;;10.37;100.00;97615.69;5043596;28;20200;-51
2023/10/06 00:56:02;;;;;;;7.70;4.83;;;;;;;10.37;100.00;97610.38;5043316;28;20261;-51
2023/10/06 00:58:33;;;;;;;4.63;3.80;;;;;;;10.46;100.00;97609.66;5043021;28;20225;-52
2023/10/06 01:01:05;;;;;;;5.73;4.10;;;;;;;10.45;100.00;97603.53;5042420;28;20238;-52
2023/10/06 01:03:35;;;;;;;6.07;4.53;;;;;;;10.44;100.00;97601.03;5043074;28;20206;-52
2023/10/06 01:06:07;;;;;;;5.13;4.30;;;;;;;10.53;100.00;97602.09;5042754;28;20210;-50
2023/10/06 01:08:33;;;;;;;5.67;4.93;;;;;;;10.40;100.00;97600.41;5042664;28;20195;-51
2023/10/06 01:11:11;;;;;;;7.80;4.63;;;;;;;10.34;100.00;97602.69;5043795;28;20220;-52
2023/10/06 01:13:40;;;;;;;5.00;4.10;;;;;;;10.33;100.00;97595.72;5044314;28;20262;-50
2023/10/06 01:16:11;;;;;;;7.67;4.67;;;;;;;10.33;100.00;97598.34;5043819;28;20279;-51
2023/10/06 01:18:41;;;;;;;5.23;4.33;;;;;;;10.22;100.00;97606.28;5043843;28;20204;-50
2023/10/06 01:21:17;;;;;;;6.73;4.43;;;;;;;10.16;100.00;97596.16;5042980;28;20244;-51
2023/10/06 01:23:46;;;;;;;8.27;4.37;;;;;;;10.15;100.00;97605.06;5042529;28;21452;-51
2023/10/06 01:26:13;;;;;;;6.83;4.27;;;;;;;10.12;100.00;97599.97;5042403;28;20207;-52
2023/10/06 01:28:45;;;;;;;5.43;4.20;;;;;;;10.05;100.00;97604.88;5042596;28;20203;-50
2023/10/06 01:31:12;;;;;;;5.80;4.03;;;;;;;10.06;100.00;97601.25;5042153;28;20206;-51
2023/10/06 01:33:39;;;;;;;8.07;4.57;;;;;;;10.09;100.00;97597.56;5042163;28;20199;-52
2023/10/06 01:36:13;;;;;;;6.90;4.83;;;;;;;10.05;100.00;97609.31;5042843;28;20210;-51
2023/10/06 01:38:42;;;;;;;6.67;4.83;;;;;;;9.99;100.00;97600.88;5041872;28;20202;-52
2023/10/06 01:41:10;;;;;;;7.67;4.23;;;;;;;10.06;100.00;97603.91;5042468;28;20196;-50
2023/10/06 01:43:38;;;;;;;6.90;4.63;;;;;;;10.05;100.00;97598.75;5041937;28;20196;-51
2023/10/06 01:46:07;;;;;;;5.07;4.53;;;;;;;9.96;100.00;97593.19;5041936;28;20289;-52
2023/10/06 01:48:36;;;;;;;4.90;4.35;;;;;;;9.99;100.00;97594.75;5041576;28;20199;-51
2023/10/06 01:51:08;;;;;;;6.60;4.30;;;;;;;9.97;100.00;97599.31;5041781;28;20584;-50
2023/10/06 01:53:38;;;;;;;7.67;4.33;;;;;;;9.99;100.00;97600.88;5041757;28;20195;-50
2023/10/06 01:56:06;;;;;;;6.77;4.53;;;;;;;9.97;100.00;97605.47;5041715;28;20290;-50
2023/10/06 01:58:36;;;;;;;5.47;4.50;;;;;;;9.97;100.00;97607.25;5042176;28;20228;-50
2023/10/06 02:01:05;;;;;;;7.47;4.43;;;;;;;9.94;100.00;97602.22;5041747;28;20246;-50
2023/10/06 02:03:38;;;;;;;4.67;4.27;;;;;;;9.90;100.00;97601.59;5042423;28;20195;-52
2023/10/06 02:06:13;;;;;;;5.23;4.30;;;;;;;9.94;100.00;97592.50;5043047;28;20287;-51
2023/10/06 02:08:40;;;;;;;5.03;4.40;;;;;;;9.94;100.00;97591.63;5045405;28;20253;-51
2023/10/06 02:11:09;;;;;;;6.10;4.57;;;;;;;9.92;100.00;97599.66;5043882;28;20203;-51
2023/10/06 02:13:38;;;;;;;5.40;4.30;;;;;;;9.88;100.00;97597.41;5042637;28;20230;-50
2023/10/06 02:16:06;;;;;;;5.17;4.40;;;;;;;9.92;100.00;97596.19;5042687;28;20295;-49
2023/10/06 02:18:36;;;;;;;5.33;4.50;;;;;;;9.89;100.00;97588.50;5042274;28;20544;-50
2023/10/06 02:21:10;;;;;;;6.60;5.50;;;;;;;9.93;100.00;97589.94;5041172;28;20208;-51
2023/10/06 02:23:37;;;;;;;5.83;4.73;;;;;;;9.93;100.00;97585.50;5041948;28;20226;-51
2023/10/06 02:26:07;;;;;;;6.60;4.90;;;;;;;9.94;100.00;97595.13;5042496;28;20199;-50
2023/10/06 02:28:33;;;;;;;7.67;5.20;;;;;;;9.89;100.00;97599.91;5041688;28;20207;-51
2023/10/06 02:31:05;;;;;;;8.00;5.43;;;;;;;9.87;100.00;97599.19;5041839;28;20235;-51
2023/10/06 02:33:36;;;;;;;6.77;4.70;;;;;;;9.87;100.00;97603.63;5041039;28;20250;-51
2023/10/06 02:36:15;;;;;;;6.47;4.80;;;;;;;9.85;100.00;97614.28;5041117;28;20204;-51
2023/10/06 02:38:46;;;;;;;6.57;5.17;;;;;;;9.85;100.00;97609.00;5040611;28;20211;-51
2023/10/06 02:41:18;;;;;;;7.40;4.80;;;;;;;9.86;100.00;97610.72;5041965;28;20203;-51
2023/10/06 02:43:46;;;;;;;5.67;4.67;;;;;;;9.89;100.00;97610.47;5041352;28;20203;-51
2023/10/06 02:46:15;;;;;;;6.27;5.03;;;;;;;9.87;100.00;97622.13;5041592;28;20207;-50
2023/10/06 02:48:48;;;;;;;7.93;5.40;;;;;;;9.86;100.00;97604.56;5041205;28;20623;-51
2023/10/06 02:51:18;;;;;;;7.23;5.30;;;;;;;9.83;100.00;97616.22;5041343;28;20239;-52
2023/10/06 02:53:49;;;;;;;11.33;5.10;;;;;;;9.77;100.00;97614.06;5041652;28;20215;-51
2023/10/06 02:56:16;;;;;;;7.80;5.67;;;;;;;9.78;100.00;97604.31;5041632;28;20286;-51
2023/10/06 02:58:42;;;;;;;8.67;5.57;;;;;;;9.82;100.00;97598.69;5041086;28;20211;-51
2023/10/06 03:01:11;;;;;;;9.03;6.40;;;;;;;9.84;100.00;97606.50;5040091;28;20577;-51
2023/10/06 03:03:39;;;;;;;9.67;6.27;;;;;;;9.84;100.00;97602.06;5041343;28;20521;-51
2023/10/06 03:06:08;;;;;;;8.07;6.17;;;;;;;9.84;100.00;97596.78;5041272;28;20211;-51
2023/10/06 03:08:35;;;;;;;6.87;5.93;;;;;;;9.88;100.00;97590.28;5041050;28;20237;-52
2023/10/06 03:11:02;;;;;;;11.97;7.10;;;;;;;9.86;100.00;97589.56;5040347;28;20565;-52
2023/10/06 03:13:32;;;;;;;10.17;7.10;;;;;;;9.86;100.00;97600.13;5041769;28;20303;-52
2023/10/06 03:15:59;;;;;;;10.57;6.93;;;;;;;9.85;100.00;97587.03;5043428;28;20696;-51
2023/10/06 03:18:26;;;;;;;8.83;6.80;;;;;;;9.86;100.00;97588.72;5043304;28;20298;-51
2023/10/06 03:21:00;;;;;;;10.50;6.80;;;;;;;9.86;100.00;97592.22;5042822;28;20241;-50
2023/10/06 03:23:30;;;;;;;7.67;6.90;;;;;;;9.80;100.00;97592.69;5042012;28;20257;-50
2023/10/06 03:25:57;;;;;;;7.83;6.50;;;;;;;9.81;100.00;97591.69;5041285;28;20264;-50
2023/10/06 03:28:31;;;;;;;10.43;6.70;;;;;;;9.81;100.00;97586.41;5041188;28;20223;-51
2023/10/06 03:31:02;;;;;;;8.73;7.23;;;;;;;9.81;100.00;97586.41;5040983;28;20219;-51
2023/10/06 03:33:29;;;;;;;8.30;6.87;;;;;;;9.78;100.00;97578.72;5040450;28;20199;-50
2023/10/06 03:35:58;;;;;;;8.63;6.90;;;;;;;9.82;100.00;97587.25;5040585;28;20195;-51
2023/10/06 03:38:36;;;;;;;8.50;7.03;;;;;;;9.85;100.00;97592.31;5040794;28;20465;-51
2023/10/06 03:41:12;;;;;;;9.93;7.83;;;;;;;9.79;100.00;97588.34;5041022;28;20648;-52
2023/10/06 03:43:47;;;;;;;10.07;7.00;;;;;;;9.75;100.00;97586.88;5041302;28;20207;-52
2023/10/06 03:46:16;;;;;;;8.63;7.20;;;;;;;9.74;100.00;97590.47;5040643;28;20200;-52
2023/10/06 03:48:42;;;;;;;9.27;7.30;;;;;;;9.72;100.00;97581.00;5041038;28;20254;-49
2023/10/06 03:51:10;;;;;;;8.93;6.90;;;;;;;9.68;100.00;97584.81;5043503;28;20231;-51
2023/10/06 03:53:37;;;;;;;11.07;7.27;;;;;;;9.67;100.00;97588.44;5044435;28;20529;-51
2023/10/06 03:56:06;;;;;;;9.40;6.93;;;;;;;9.67;100.00;97594.53;5044285;28;20544;-52
2023/10/06 03:58:32;;;;;;;11.53;7.13;;;;;;;9.72;100.00;97596.84;5044434;28;20199;-51
2023/10/06 04:01:07;;;;;;;9.77;7.57;;;;;;;9.71;100.00;97596.00;5043476;28;20231;-52
2023/10/06 04:03:34;;;;;;;9.43;8.33;;;;;;;9.66;100.00;97597.31;5044126;28;20544;-51
2023/10/06 04:06:03;;;;;;;11.23;8.20;;;;;;;9.60;100.00;97593.31;5043831;28;20265;-52
2023/10/06 04:08:31;;;;;;;9.80;8.80;;;;;;;9.54;100.00;97588.50;5044036;28;20199;-51
2023/10/06 04:10:58;;;;;;;10.03;9.03;;;;;;;9.50;100.00;97584.38;5043850;28;20316;-52
2023/10/06 04:13:25;;;;;;;10.93;9.83;;;;;;;9.53;100.00;97575.41;5043978;28;20199;-52
2023/10/06 04:15:53;;;;;;;14.50;9.83;;;;;;;9.48;100.00;97581.88;5044428;28;20211;-50
2023/10/06 04:18:22;;;;;;;10.80;9.67;;;;;;;9.59;100.00;97581.09;5044150;28;20650;-51
2023/10/06 04:20:48;;;;;;;13.50;10.20;;;;;;;9.50;100.00;97574.66;5043913;28;20300;-52
2023/10/06 04:23:17;;;;;;;13.20;9.90;;;;;;;9.47;100.00;97581.97;5044497;28;20219;-51
2023/10/06 04:25:45;;;;;;;13.50;10.77;;;;;;;9.48;100.00;97578.38;5044417;28;20207;-49
2023/10/06 04:28:14;;;;;;;11.53;10.30;;;;;;;9.47;100.00;97582.81;5045314;28;20204;-51
2023/10/06 04:30:42;;;;;;;13.10;9.83;;;;;;;9.50;100.00;97582.59;5047468;28;20611;-52
2023/10/06 04:33:10;;;;;;;12.10;9.30;;;;;;;9.50;100.00;97581.75;5047504;28;20211;-54
2023/10/06 04:35:40;;;;;;;10.10;8.97;;;;;;;9.48;100.00;97583.66;5044981;28;20211;-51
2023/10/06 04:38:09;;;;;;;11.70;9.10;;;;;;;9.51;100.00;97583.44;5044598;28;20226;-51
2023/10/06 04:40:36;;;;;;;12.40;9.30;;;;;;;9.50;100.00;97579.09;5044363;28;21483;-51
2023/10/06 04:43:04;;;;;;;12.93;9.40;;;;;;;9.50;100.00;97573.81;5044417;28;20306;-50
2023/10/06 04:45:31;;;;;;;10.97;8.60;;;;;;;9.46;100.00;97565.28;5044037;28;20222;-52
2023/10/06 04:48:00;;;;;;;12.10;8.67;;;;;;;9.45;100.00;97566.25;5043860;28;20199;-52
2023/10/06 04:50:27;;;;;;;13.27;8.87;;;;;;;9.54;100.00;97566.50;5043440;28;20250;-52
2023/10/06 04:52:54;;;;;;;12.10;9.50;;;;;;;9.55;100.00;97569.06;5043515;28;20234;-52
2023/10/06 04:55:21;;;;;;;13.00;9.37;;;;;;;9.52;100.00;97568.44;5043312;28;20222;-52
2023/10/06 04:57:48;;;;;;;12.53;9.13;;;;;;;9.50;100.00;97566.75;5043202;28;20196;-52
2023/10/06 05:00:19;;;;;;;11.33;9.20;;;;;;;9.48;100.00;97578.38;5042636;28;20285;-52
2023/10/06 05:02:47;;;;;;;11.60;9.63;;;;;;;9.46;100.00;97572.38;5043638;28;20229;-51
2023/10/06 05:05:14;;;;;;;12.20;9.20;;;;;;;9.42;100.00;97573.56;5042431;28;20207;-51
2023/10/06 05:07:41;;;;;;;11.73;9.10;;;;;;;9.43;100.00;97577.88;5042999;28;20594;-50
2023/10/06 05:10:10;;;;;;;11.53;8.97;;;;;;;9.40;100.00;97588.66;5042149;28;20219;-51
2023/10/06 05:12:37;;;;;;;13.00;9.40;;;;;;;9.44;100.00;97592.75;5042373;28;20210;-50
2023/10/06 05:15:08;;;;;;;13.27;9.73;;;;;;;9.43;100.00;97591.91;5042711;28;20195;-50
2023/10/06 05:17:36;;;;;;;13.47;11.33;;;;;;;9.42;100.00;97589.41;5043187;28;20195;-50
2023/10/06 05:20:03;;;;;;;14.07;10.27;;;;;;;9.40;100.00;97591.31;5042365;28;20203;-51
2023/10/06 05:22:29;;;;;;;12.63;9.80;;;;;;;9.36;100.00;97584.56;5042854;28;20235;-51
2023/10/06 05:24:56;;;;;;;12.40;9.27;;;;;;;9.32;100.00;97580.44;5042116;28;20230;-51
2023/10/06 05:27:23;;;;;;;12.27;9.17;;;;;;;9.29;100.00;97585.97;5042711;28;20207;-51
2023/10/06 05:29:50;;;;;;;10.63;9.27;;;;;;;9.30;100.00;97590.28;5042882;28;20204;-51
2023/10/06 05:32:17;;;;;;;13.73;10.00;;;;;;;9.32;100.00;97583.94;5042376;28;20245;-50
2023/10/06 05:34:44;;;;;;;14.13;10.53;;;;;;;9.31;100.00;97592.84;5041745;28;20214;-51
2023/10/06 05:37:12;;;;;;;13.33;10.33;;;;;;;9.33;100.00;97590.06;5042273;28;20259;-52
2023/10/06 05:39:40;;;;;;;11.47;10.27;;;;;;;9.32;100.00;97593.66;5043501;28;20214;-52
2023/10/06 05:42:08;;;;;;;13.03;10.27;;;;;;;9.34;100.00;97592.59;5043525;28;20200;-51
2023/10/06 05:44:36;;;;;;;14.47;10.00;;;;;;;9.25;100.00;97587.13;5044314;28;20216;-51
2023/10/06 05:47:02;;;;;;;12.40;10.33;;;;;;;9.27;100.00;97585.25;5042814;28;20260;-51
2023/10/06 05:49:32;;;;;;;12.90;9.60;;;;;;;9.32;100.00;97583.09;5043721;28;20211;-49
2023/10/06 05:52:00;;;;;;;11.97;9.57;;;;;;;9.33;100.00;97588.28;5043059;28;20227;-49
2023/10/06 05:54:29;;;;;;;13.47;9.60;;;;;;;9.32;100.00;97585.72;5043613;28;20211;-52
2023/10/06 05:56:56;;;;;;;11.13;8.70;;;;;;;9.34;100.00;97586.47;5043298;28;20206;-51
2023/10/06 05:59:23;;;;;;;14.10;9.33;;;;;;;9.39;100.00;97594.88;5042093;28;20243;-50
2023/10/06 06:01:56;;;;;;;12.93;9.60;;;;;;;9.44;100.00;97598.03;5042917;28;20195;-51
2023/10/06 06:04:27;;;;;;;11.77;10.00;;;;;;;9.47;100.00;97603.94;5041217;28;20303;-51
2023/10/06 06:06:56;;;;;;;11.13;9.63;;;;;;;9.51;100.00;97604.56;5042740;28;20223;-51
2023/10/06 06:09:24;;;;;;;12.63;10.57;;;;;;;9.54;100.00;97609.63;5042353;28;20314;-52
2023/10/06 06:11:50;;;;;;;11.30;10.10;;;;;;;9.61;100.00;97610.84;5041366;28;20231;-50
2023/10/06 06:14:20;;;;;;;12.37;10.37;;;;;;;9.68;100.00;97620.00;5041524;28;20199;-52
2023/10/06 06:16:46;;;;;;;11.17;10.03;;;;;;;9.81;100.00;97619.94;5041733;28;20203;-51
2023/10/06 06:19:13;;;;;;;13.53;10.53;;;;;;;9.88;100.00;97624.63;5041370;28;20207;-51
2023/10/06 06:21:39;;;;;;;14.87;10.53;;;;;;;9.92;100.00;97614.69;5041486;28;20611;-51
2023/10/06 06:24:07;;;;;;;11.63;10.40;;;;;;;9.97;100.00;97613.38;5041598;28;20203;-51
2023/10/06 06:26:36;;;;;;;11.47;10.23;;;;;;;10.02;100.00;97620.13;5041772;28;20203;-50
2023/10/06 06:29:03;;;;;;;13.83;10.37;;;;;;;10.11;100.00;97619.41;5041539;28;20289;-49
2023/10/06 06:31:32;;;;;;;12.87;10.97;;;;;;;10.20;100.00;97624.06;5041695;28;20285;-51
2023/10/06 06:33:59;;;;;;;13.17;10.47;;;;;;;10.27;100.00;97623.44;5041808;28;20286;-51
2023/10/06 06:36:26;;;;;;;14.13;9.77;;;;;;;10.36;100.00;97622.75;5041688;28;20218;-52
2023/10/06 06:38:53;;;;;;;14.47;10.00;;;;;;;10.47;100.00;97632.50;5041279;28;20199;-51
2023/10/06 06:41:21;;;;;;;12.23;9.27;;;;;;;10.61;100.00;97629.66;5041389;28;20759;-51
2023/10/06 06:43:49;;;;;;;10.07;9.00;;;;;;;10.72;100.00;97627.00;5042026;28;20238;-51
2023/10/06 06:46:17;;;;;;;14.60;9.70;;;;;;;10.81;100.00;97626.28;5041198;28;20206;-51
2023/10/06 06:48:46;;;;;;;12.37;9.73;;;;;;;10.92;100.00;97628.06;5041544;28;20537;-50
2023/10/06 06:51:13;;;;;;;13.47;9.57;;;;;;;11.01;100.00;97622.06;5041293;28;20228;-50
2023/10/06 06:53:40;;;;;;;10.50;8.60;;;;;;;11.10;100.00;97620.47;5040443;28;20653;-51
2023/10/06 06:56:06;;;;;;;13.47;10.07;;;;;;;11.19;100.00;97619.75;5041317;28;20203;-50
2023/10/06 06:58:37;;;;;;;13.10;9.40;;;;;;;11.25;100.00;97624.56;5040801;28;20203;-50
2023/10/06 07:01:07;;;;;;;11.03;9.37;;;;;;;11.31;100.00;97626.69;5041103;28;20580;-50
2023/10/06 07:03:33;;;;;;;17.83;9.97;;;;;;;11.29;100.00;97620.69;5043053;28;20199;-52
2023/10/06 07:06:00;;;;;;;12.70;9.50;;;;;;;11.29;100.00;97623.34;5040892;28;20209;-50
2023/10/06 07:08:27;;;;;;;13.60;9.70;;;;;;;11.39;100.00;97627.78;5041761;28;20203;-51
2023/10/06 07:10:53;;;;;;;15.40;10.03;;;;;;;11.38;100.00;97641.13;5041206;28;20251;-49
2023/10/06 07:13:22;;;;;;;13.13;10.73;;;;;;;11.29;100.00;97648.03;5041059;28;20199;-49
2023/10/06 07:15:49;;;;;;;14.03;8.73;;;;;;;11.25;100.00;97657.19;5041163;28;20195;-50
2023/10/06 07:18:19;;;;;;;13.33;8.83;;;;;;;11.30;100.00;97647.03;5041376;28;20302;-50
2023/10/06 07:20:45;;;;;;;11.40;8.27;;;;;;;11.45;100.00;97648.47;5041278;28;20286;-51
2023/10/06 07:23:12;;;;;;;11.77;8.60;;;;;;;11.52;100.00;97648.81;5041251;28;20223;-50
2023/10/06 07:25:39;;;;;;;11.80;8.30;;;;;;;11.61;100.00;97657.81;5044767;28;20226;-51
2023/10/06 07:28:07;;;;;;;11.73;8.97;;;;;;;11.75;100.00;97660.22;5044774;28;20534;-51
2023/10/06 07:30:35;;;;;;;13.20;9.30;;;;;;;11.76;100.00;97664.56;5045514;28;20225;-50
2023/10/06 07:33:03;;;;;;;11.27;8.87;;;;;;;11.80;100.00;97658.88;5044341;28;20266;-51
2023/10/06 07:35:37;;;;;;;10.23;8.70;;;;;;;11.78;100.00;97660.81;5044615;28;20203;-51
2023/10/06 07:38:03;;;;;;;12.73;9.60;;;;;;;11.91;100.00;97666.78;5045870;28;20214;-51
2023/10/06 07:40:31;;;;;;;12.23;9.67;;;;;;;11.92;100.00;97664.97;5045242;28;20207;-51
2023/10/06 07:42:57;;;;;;;15.43;9.90;;;;;;;11.94;100.00;97655.91;5045821;28;20364;-51
2023/10/06 07:45:26;;;;;;;13.10;9.63;;;;;;;11.97;100.00;97650.34;5045952;28;20624;-50
2023/10/06 07:47:54;;;;;;;13.97;9.40;;;;;;;12.06;100.00;97653.22;5045808;28;20243;-51
2023/10/06 07:50:20;;;;;;;11.50;10.00;;;;;;;12.10;100.00;97659.97;5045686;28;20748;-51
2023/10/06 07:52:48;;;;;;;12.67;10.40;;;;;;;12.16;100.00;97648.84;5047585;28;20228;-52
2023/10/06 07:55:16;;;;;;;12.13;9.63;;;;;;;12.22;100.00;97641.19;5052900;28;20222;-56
2023/10/06 07:57:47;;;;;;;14.77;10.47;;;;;;;12.23;100.00;97639.41;5056002;28;20210;-51
2023/10/06 08:00:18;;;;;;;12.93;9.93;;;;;;;12.33;100.00;97643.78;5055647;28;20670;-51
2023/10/06 08:02:45;;;;;;;13.40;10.73;;;;;;;12.34;100.00;97647.28;5051696;28;20200;-51
2023/10/06 08:05:17;;;;;;;14.77;10.63;;;;;;;12.38;100.00;97654.03;5050422;28;20570;-50
2023/10/06 08:07:43;;;;;;;14.37;10.83;;;;;;;12.45;100.00;97652.53;5050594;28;20249;-50
2023/10/06 08:10:14;;;;;;;14.40;11.07;;;;;;;12.57;100.00;97648.84;5050653;28;20204;-50
2023/10/06 08:12:45;;;;;;;13.93;11.27;;;;;;;12.67;100.00;97651.56;5044751;28;20242;-51
2023/10/06 08:15:16;;;;;;;14.23;10.23;;;;;;;12.67;100.00;97656.88;5044312;28;20212;-50
2023/10/06 08:17:45;;;;;;;11.87;10.27;;;;;;;12.74;100.00;97661.50;5044682;28;20223;-50
2023/10/06 08:20:14;;;;;;;16.03;11.20;;;;;;;12.84;100.00;97666.88;5044423;28;20280;-49
2023/10/06 08:22:45;;;;;;;13.00;9.50;;;;;;;12.93;100.00;97655.47;5044708;28;20291;-49
2023/10/06 08:25:14;;;;;;;12.00;10.37;;;;;;;12.96;100.00;97656.03;5043856;28;20203;-51
2023/10/06 08:27:42;;;;;;;13.23;9.90;;;;;;;13.05;100.00;97658.84;5045453;28;20237;-51
2023/10/06 08:30:15;;;;;;;11.70;10.00;;;;;;;13.13;100.00;97645.78;5044731;28;20211;-51
2023/10/06 08:32:42;;;;;;;13.90;10.60;;;;;;;13.36;100.00;97649.91;5043494;28;20226;-50
2023/10/06 08:35:13;;;;;;;14.57;10.40;;;;;;;13.44;100.00;97644.75;5042249;28;20212;-51
2023/10/06 08:37:40;;;;;;;13.33;10.33;;;;;;;13.57;100.00;97657.81;5043138;28;20290;-51
2023/10/06 08:40:09;;;;;;;14.05;10.82;;;;;;;13.68;100.00;97663.81;5043554;28;20207;-51
2023/10/06 08:42:37;;;;;;;11.43;9.70;;;;;;;13.80;100.00;97654.75;5043290;28;20498;-51
2023/10/06 08:45:04;;;;;;;14.20;10.48;;;;;;;13.94;100.00;97657.00;5043700;28;20226;-50
2023/10/06 08:47:31;;;;;;;13.05;10.18;;;;;;;14.15;100.00;97656.03;5043608;28;20208;-50
2023/10/06 08:50:01;;;;;;;15.70;10.70;;;;;;;14.21;100.00;97655.47;5043899;28;20214;-52
2023/10/06 08:52:29;;;;;;;10.98;8.90;;;;;;;14.26;100.00;97654.06;5044465;28;20230;-51
2023/10/06 08:54:56;;;;;;;12.02;10.13;;;;;;;14.30;100.00;97655.47;5043547;28;20558;-50
2023/10/06 08:57:24;;;;;;;12.70;10.40;;;;;;;14.45;100.00;97653.25;5042913;28;20217;-49
2023/10/06 08:59:52;;;;;;;14.90;9.70;;;;;;;14.60;100.00;97651.81;5043126;28;20235;-51
2023/10/06 09:02:19;;;;;;;14.45;9.93;;;;;;;14.72;100.00;97640.00;5043097;28;20543;-49
2023/10/06 09:04:46;;;;;;;13.48;9.95;;;;;;;14.84;100.00;97638.84;5042583;28;20203;-51
2023/10/06 09:07:15;;;;;;;14.32;9.30;;;;;;;15.00;100.00;97626.72;5043217;28;20208;-50
2023/10/06 09:09:43;;;;;;;14.35;9.88;;;;;;;15.08;100.00;97634.84;5043007;28;20522;-51
2023/10/06 09:12:10;;;;;;;14.10;9.63;;;;;;;15.35;100.00;97626.84;5043465;28;20265;-51
2023/10/06 09:14:50;;;;;;;13.23;9.30;;;;;;;15.63;100.00;97631.19;5042741;28;20227;-52
2023/10/06 09:17:30;;;;;;;13.65;9.77;;;;;;;15.97;100.00;97628.72;5043159;28;20191;-52
2023/10/06 09:19:57;;;;;;;12.38;8.82;;;;;;;16.18;100.00;97631.91;5042692;28;20206;-54
2023/10/06 09:22:28;;;;;;;14.02;9.35;;;;;;;16.32;100.00;97633.19;5045385;28;20203;-52
2023/10/06 09:24:59;;;;;;;11.52;9.10;;;;;;;16.36;100.00;97638.06;5045444;28;20640;-52
2023/10/06 09:27:26;;;;;;;11.93;9.15;;;;;;;16.54;100.00;97637.22;5045763;28;20204;-51
2023/10/06 09:29:59;;;;;;;13.45;9.80;;;;;;;16.42;100.00;97628.59;5050684;28;20841;-51
2023/10/06 09:32:27;;;;;;;12.73;9.07;;;;;;;16.68;100.00;97628.66;5046914;28;20215;-51
2023/10/06 09:34:57;;;;;;;10.50;8.68;;;;;;;16.74;96.93;97620.84;5041799;28;20195;-51
2023/10/06 09:37:24;;;;;;;13.70;9.82;;;;;;;16.96;98.69;97626.66;5042332;28;20214;-52
2023/10/06 09:39:57;;;;;;;12.13;9.50;;;;;;;17.41;95.42;97620.00;5042411;28;20569;-50
2023/10/06 09:42:27;;;;;;;13.27;8.95;;;;;;;17.78;94.64;97616.94;5042245;28;20584;-50
2023/10/06 09:45:05;;;;;;;14.63;9.68;;;;;;;18.11;92.45;97608.97;5042994;28;20218;-51
2023/10/06 09:47:35;;;;;;;11.88;8.25;;;;;;;18.53;93.02;97612.34;5041905;28;20207;-51
2023/10/06 09:50:03;;;;;;;10.88;8.93;;;;;;;18.81;90.25;97610.94;5041668;28;20204;-51
2023/10/06 09:52:31;;;;;;;13.75;8.57;;;;;;;19.18;86.96;97609.50;5041682;28;20582;-50
2023/10/06 09:54:57;;;;;;;14.60;9.57;;;;;;;19.04;84.99;97607.56;5042001;28;20247;-51
2023/10/06 09:57:24;;;;;;;13.68;9.30;;;;;;;18.65;85.87;97613.69;5041953;28;21520;-52
2023/10/06 09:59:54;;;;;;;13.43;9.27;;;;;;;18.81;86.48;97613.63;5041189;28;20699;-51
2023/10/06 10:02:21;;;;;;;25.08;9.38;;;;;;;19.16;86.43;97611.53;5042089;28;20195;-51
2023/10/06 10:04:49;;;;;;;11.35;8.05;;;;;;;19.57;86.67;97610.38;5041834;28;20195;-51
2023/10/06 10:07:16;;;;;;;16.33;8.88;;;;;;;19.83;86.00;97610.06;5041393;28;20217;-54
2023/10/06 10:09:43;;;;;;;11.73;9.45;;;;;;;19.98;83.22;97597.53;5042399;28;20222;-57
2023/10/06 10:12:19;;;;;;;10.90;8.43;;;;;;;20.16;84.31;97594.56;5041733;28;20687;-55
2023/10/06 10:14:57;;;;;;;10.60;8.30;;;;;;;19.91;81.07;97591.22;5041240;28;20203;-56
2023/10/06 10:17:33;;;;;;;12.48;9.02;;;;;;;19.83;82.85;97594.81;5041387;28;20206;-54
2023/10/06 10:20:02;;;;;;;11.18;8.52;;;;;;;20.10;81.07;97585.38;5041364;28;20275;-55
2023/10/06 10:22:29;;;;;;;12.85;8.90;;;;;;;19.86;84.71;97585.56;5041654;28;20209;-55
2023/10/06 10:25:01;;;;;;;12.90;8.63;;;;;;;19.95;82.81;97591.69;5041168;28;20216;-54
2023/10/06 10:27:27;;;;;;;10.57;8.73;;;;;;;19.70;82.23;97591.00;5040599;28;20196;-56
2023/10/06 10:29:54;;;;;;;11.68;9.52;;;;;;;19.65;81.17;97591.56;5041562;28;20226;-55
2023/10/06 10:32:23;;;;;;;13.60;9.00;;;;;;;19.54;84.70;97588.44;5041259;28;20555;-55
2023/10/06 10:35:12;;;;;;;11.50;8.73;;;;;;;19.86;84.56;97583.72;5041734;28;20286;-56
2023/10/06 10:37:58;;;;;;;11.57;8.27;;;;;;;20.24;81.53;97586.44;5041286;28;20230;-55
2023/10/06 10:40:26;;;;;;;10.38;8.43;;;;;;;20.38;83.28;97571.41;5041482;28;20207;-56
2023/10/06 10:42:57;;;;;;;9.75;8.60;;;;;;;20.48;80.46;97567.44;5041704;28;20203;-55
2023/10/06 10:45:34;;;;;;;11.98;8.82;;;;;;;20.36;80.51;97563.53;5042016;28;20273;-56
2023/10/06 10:48:00;;;;;;;9.95;8.65;;;;;;;20.74;79.34;97567.88;5041532;28;20247;-55
2023/10/06 10:50:44;;;;;;;10.02;8.73;;;;;;;20.60;77.68;97571.38;5040987;28;20659;-56
2023/10/06 10:53:12;;;;;;;12.90;8.27;;;;;;;21.24;76.50;97569.00;5041572;28;20255;-55
2023/10/06 10:55:38;;;;;;;10.65;8.13;;;;;;;21.76;78.00;97571.47;5040867;28;21346;-53
2023/10/06 10:58:07;;;;;;;10.45;8.10;;;;;;;22.26;71.89;97570.56;5041769;28;20218;-54
2023/10/06 11:00:33;;;;;;;9.32;8.35;;;;;;;22.23;70.73;97568.25;5045951;28;20258;-55
2023/10/06 11:03:04;;;;;;;9.20;7.72;;;;;;;22.04;71.85;97566.22;5044812;28;20226;-56
2023/10/06 11:05:32;;;;;;;9.32;8.25;;;;;;;22.46;71.25;97560.78;5044450;28;20234;-55
2023/10/06 11:08:00;;;;;;;10.43;7.97;;;;;;;23.09;69.02;97556.28;5046055;28;20232;-55
2023/10/06 11:10:27;;;;;;;10.05;7.40;;;;;;;23.09;66.99;97554.41;5045641;28;20211;-54
2023/10/06 11:13:16;;;;;;;10.55;8.15;;;;;;;23.24;65.42;97554.25;5045495;28;20296;-55
2023/10/06 11:15:44;;;;;;;10.05;7.38;;;;;;;23.20;67.96;97551.13;5045056;28;20196;-55
2023/10/06 11:18:13;;;;;;;9.80;7.80;;;;;;;23.65;64.90;97544.31;5045006;28;20651;-54
2023/10/06 11:20:41;;;;;;;10.73;7.70;;;;;;;23.65;64.08;97544.31;5044757;28;20242;-54
2023/10/06 11:23:08;;;;;;;9.07;7.20;;;;;;;24.16;65.57;97538.41;5046473;28;20847;-56
2023/10/06 11:25:36;;;;;;;9.30;7.63;;;;;;;24.43;63.99;97529.25;5045981;28;20261;-55
2023/10/06 11:28:04;;;;;;;9.88;7.68;;;;;;;24.58;63.59;97532.59;5045743;28;20690;-55
2023/10/06 11:30:32;;;;;;;9.15;7.38;;;;;;;24.81;64.24;97532.13;5045621;28;20204;-56
2023/10/06 11:33:00;;;;;;;9.07;7.05;;;;;;;25.08;61.71;97525.63;5045208;28;20285;-56